sensor_id;sensor_type;location;lat;lon;timestamp;temperature;humidity
19292;DHT22;9779;51.756;7.450;2023-04-02T00:02:34;6.80;99.90
19292;DHT22;9779;51.756;7.450;2023-04-02T00:06:00;6.70;99.90
19292;DHT22;9779;51.756;7.450;2023-04-02T00:10:54;6.60;99.90
19292;DHT22;9779;51.756;7.450;2023-04-02T00:13:33;6.60;99.90
19292;DHT22;9779;51.756;7.450;2023-04-02T00:16:00;6.60;99.90
19292;DHT22;9779;51.756;7.450;2023-04-02T00:18:27;6.60;99.90
19292;DHT22;9779;51.756;7.450;2023-04-02T00:21:10;6.60;99.90
19292;DHT22;9779;51.756;7.450;2023-04-02T00:23:41;6.60;99.90
19292;DHT22;9779;51.756;7.450;2023-04-02T00:28:53;6.60;99.90
19292;DHT22;9779;51.756;7.450;2023-04-02T00:31:19;6.60;99.90
19292;DHT22;9779;51.756;7.450;2023-04-02T00:33:45;6.50;99.90
19292;DHT22;9779;51.756;7.450;2023-04-02T00:36:12;6.50;99.90
19292;DHT22;9779;51.756;7.450;2023-04-02T00:38:38;6.50;99.90
19292;DHT22;9779;51.756;7.450;2023-04-02T00:41:13;6.50;99.90
19292;DHT22;9779;51.756;7.450;2023-04-02T00:43:43;6.40;99.90
19292;DHT22;9779;51.756;7.450;2023-04-02T00:46:22;6.40;99.90
19292;DHT22;9779;51.756;7.450;2023-04-02T00:49:06;6.40;99.90
19292;DHT22;9779;51.756;7.450;2023-04-02T00:51:58;6.40;99.90
19292;DHT22;9779;51.756;7.450;2023-04-02T00:54:27;6.30;99.90
19292;DHT22;9779;51.756;7.450;2023-04-02T00:56:56;6.30;99.90
19292;DHT22;9779;51.756;7.450;2023-04-02T00:59:32;6.30;99.90
19292;DHT22;9779;51.756;7.450;2023-04-02T01:02:20;6.30;99.90
19292;DHT22;9779;51.756;7.450;2023-04-02T01:24:02;6.20;99.90
19292;DHT22;9779;51.756;7.450;2023-04-02T01:26:38;6.10;99.90
19292;DHT22;9779;51.756;7.450;2023-04-02T01:29:09;6.10;99.90
19292;DHT22;9779;51.756;7.450;2023-04-02T01:31:37;6.10;99.90
19292;DHT22;9779;51.756;7.450;2023-04-02T01:34:05;6.00;99.90
19292;DHT22;9779;51.756;7.450;2023-04-02T01:39:44;6.00;99.90
19292;DHT22;9779;51.756;7.450;2023-04-02T01:42:22;6.10;99.90
19292;DHT22;9779;51.756;7.450;2023-04-02T01:44:53;6.00;99.90
19292;DHT22;9779;51.756;7.450;2023-04-02T01:47:24;6.00;99.90
19292;DHT22;9779;51.756;7.450;2023-04-02T01:49:56;6.00;99.90
19292;DHT22;9779;51.756;7.450;2023-04-02T01:52:39;6.00;99.90
19292;DHT22;9779;51.756;7.450;2023-04-02T01:55:10;6.00;99.90
19292;DHT22;9779;51.756;7.450;2023-04-02T01:57:41;5.90;99.90
19292;DHT22;9779;51.756;7.450;2023-04-02T02:00:12;5.80;99.90
19292;DHT22;9779;51.756;7.450;2023-04-02T02:02:40;5.80;99.90
19292;DHT22;9779;51.756;7.450;2023-04-02T02:05:12;5.80;99.90
19292;DHT22;9779;51.756;7.450;2023-04-02T02:07:38;5.80;99.90
19292;DHT22;9779;51.756;7.450;2023-04-02T02:10:06;5.70;99.90
19292;DHT22;9779;51.756;7.450;2023-04-02T02:12:32;5.70;99.90
19292;DHT22;9779;51.756;7.450;2023-04-02T02:14:57;5.80;99.90
19292;DHT22;9779;51.756;7.450;2023-04-02T02:17:29;5.70;99.90
19292;DHT22;9779;51.756;7.450;2023-04-02T02:19:58;5.60;99.90
19292;DHT22;9779;51.756;7.450;2023-04-02T02:22:31;5.60;99.90
19292;DHT22;9779;51.756;7.450;2023-04-02T02:25:01;5.60;99.90
19292;DHT22;9779;51.756;7.450;2023-04-02T02:30:10;5.60;99.90
19292;DHT22;9779;51.756;7.450;2023-04-02T02:32:42;5.60;99.90
19292;DHT22;9779;51.756;7.450;2023-04-02T02:35:26;5.60;99.90
19292;DHT22;9779;51.756;7.450;2023-04-02T02:44:04;5.50;99.90
19292;DHT22;9779;51.756;7.450;2023-04-02T02:46:31;5.50;99.90
19292;DHT22;9779;51.756;7.450;2023-04-02T02:49:00;5.50;99.90
19292;DHT22;9779;51.756;7.450;2023-04-02T02:51:52;5.50;99.90
19292;DHT22;9779;51.756;7.450;2023-04-02T02:54:21;5.50;99.90
19292;DHT22;9779;51.756;7.450;2023-04-02T02:57:00;5.50;99.90
19292;DHT22;9779;51.756;7.450;2023-04-02T02:59:26;5.50;99.90
19292;DHT22;9779;51.756;7.450;2023-04-02T03:01:53;5.50;99.90
19292;DHT22;9779;51.756;7.450;2023-04-02T03:04:20;5.50;99.90
19292;DHT22;9779;51.756;7.450;2023-04-02T03:06:51;5.60;99.90
19292;DHT22;9779;51.756;7.450;2023-04-02T03:12:27;5.50;99.90
19292;DHT22;9779;51.756;7.450;2023-04-02T03:14:57;5.50;99.90
19292;DHT22;9779;51.756;7.450;2023-04-02T03:22:43;5.30;99.90
19292;DHT22;9779;51.756;7.450;2023-04-02T03:25:27;5.30;99.90
19292;DHT22;9779;51.756;7.450;2023-04-02T03:28:00;5.20;99.90
19292;DHT22;9779;51.756;7.450;2023-04-02T03:38:40;5.20;99.90
19292;DHT22;9779;51.756;7.450;2023-04-02T03:41:16;5.20;99.90
19292;DHT22;9779;51.756;7.450;2023-04-02T03:43:46;5.10;99.90
19292;DHT22;9779;51.756;7.450;2023-04-02T03:49:09;5.10;99.90
19292;DHT22;9779;51.756;7.450;2023-04-02T03:51:48;5.10;99.90
19292;DHT22;9779;51.756;7.450;2023-04-02T03:54:15;5.00;99.90
19292;DHT22;9779;51.756;7.450;2023-04-02T03:56:42;5.00;99.90
19292;DHT22;9779;51.756;7.450;2023-04-02T03:59:28;5.10;99.90
19292;DHT22;9779;51.756;7.450;2023-04-02T04:02:16;5.00;99.90
19292;DHT22;9779;51.756;7.450;2023-04-02T04:04:44;5.10;99.90
19292;DHT22;9779;51.756;7.450;2023-04-02T04:07:30;5.10;99.90
19292;DHT22;9779;51.756;7.450;2023-04-02T04:09:57;5.10;99.90
19292;DHT22;9779;51.756;7.450;2023-04-02T04:12:30;5.00;99.90
19292;DHT22;9779;51.756;7.450;2023-04-02T04:15:12;5.00;99.90
19292;DHT22;9779;51.756;7.450;2023-04-02T04:20:32;4.90;99.90
19292;DHT22;9779;51.756;7.450;2023-04-02T04:23:13;5.00;99.90
19292;DHT22;9779;51.756;7.450;2023-04-02T04:25:41;4.90;99.90
19292;DHT22;9779;51.756;7.450;2023-04-02T04:28:26;4.80;99.90
19292;DHT22;9779;51.756;7.450;2023-04-02T04:31:18;4.80;99.90
19292;DHT22;9779;51.756;7.450;2023-04-02T04:33:49;4.80;99.90
19292;DHT22;9779;51.756;7.450;2023-04-02T04:54:36;4.80;99.90
19292;DHT22;9779;51.756;7.450;2023-04-02T04:57:03;4.70;99.90
19292;DHT22;9779;51.756;7.450;2023-04-02T04:59:39;4.60;99.90
19292;DHT22;9779;51.756;7.450;2023-04-02T05:02:28;4.70;99.90
19292;DHT22;9779;51.756;7.450;2023-04-02T05:04:56;4.60;99.90
19292;DHT22;9779;51.756;7.450;2023-04-02T05:07:27;4.50;99.90
19292;DHT22;9779;51.756;7.450;2023-04-02T05:10:02;4.50;99.90
19292;DHT22;9779;51.756;7.450;2023-04-02T05:18:07;4.40;99.90
19292;DHT22;9779;51.756;7.450;2023-04-02T05:21:23;4.40;99.90
19292;DHT22;9779;51.756;7.450;2023-04-02T05:23:34;4.40;99.90
19292;DHT22;9779;51.756;7.450;2023-04-02T05:28:45;4.40;99.90
19292;DHT22;9779;51.756;7.450;2023-04-02T05:31:14;4.40;99.90
19292;DHT22;9779;51.756;7.450;2023-04-02T05:33:46;4.40;99.90
19292;DHT22;9779;51.756;7.450;2023-04-02T05:36:20;4.50;99.90
19292;DHT22;9779;51.756;7.450;2023-04-02T05:38:48;4.50;99.90
19292;DHT22;9779;51.756;7.450;2023-04-02T05:41:28;4.40;99.90
19292;DHT22;9779;51.756;7.450;2023-04-02T05:44:21;4.40;99.90
19292;DHT22;9779;51.756;7.450;2023-04-02T05:46:53;4.40;99.90
19292;DHT22;9779;51.756;7.450;2023-04-02T05:49:32;4.40;99.90
19292;DHT22;9779;51.756;7.450;2023-04-02T05:52:03;4.30;99.90
19292;DHT22;9779;51.756;7.450;2023-04-02T05:54:37;4.30;99.90
19292;DHT22;9779;51.756;7.450;2023-04-02T05:57:10;4.40;99.90
19292;DHT22;9779;51.756;7.450;2023-04-02T05:59:42;4.40;99.90
19292;DHT22;9779;51.756;7.450;2023-04-02T06:02:22;4.30;99.90
19292;DHT22;9779;51.756;7.450;2023-04-02T06:04:52;4.30;99.90
19292;DHT22;9779;51.756;7.450;2023-04-02T06:07:47;4.30;99.90
19292;DHT22;9779;51.756;7.450;2023-04-02T06:10:27;4.30;99.90
19292;DHT22;9779;51.756;7.450;2023-04-02T06:12:56;4.30;99.90
19292;DHT22;9779;51.756;7.450;2023-04-02T06:15:24;4.30;99.90
19292;DHT22;9779;51.756;7.450;2023-04-02T06:17:57;4.30;99.90
19292;DHT22;9779;51.756;7.450;2023-04-02T06:20:23;4.30;99.90
19292;DHT22;9779;51.756;7.450;2023-04-02T06:23:11;4.30;99.90
19292;DHT22;9779;51.756;7.450;2023-04-02T06:25:47;4.30;99.90
19292;DHT22;9779;51.756;7.450;2023-04-02T06:28:17;4.30;99.90
19292;DHT22;9779;51.756;7.450;2023-04-02T06:30:44;4.30;99.90
19292;DHT22;9779;51.756;7.450;2023-04-02T06:33:11;4.30;99.90
19292;DHT22;9779;51.756;7.450;2023-04-02T06:35:40;4.30;99.90
19292;DHT22;9779;51.756;7.450;2023-04-02T06:38:15;4.20;99.90
19292;DHT22;9779;51.756;7.450;2023-04-02T06:43:55;4.20;99.90
19292;DHT22;9779;51.756;7.450;2023-04-02T06:46:31;4.20;99.90
19292;DHT22;9779;51.756;7.450;2023-04-02T06:51:39;4.10;99.90
19292;DHT22;9779;51.756;7.450;2023-04-02T06:54:11;4.20;99.90
19292;DHT22;9779;51.756;7.450;2023-04-02T06:56:46;4.20;99.90
19292;DHT22;9779;51.756;7.450;2023-04-02T06:59:13;4.20;99.90
19292;DHT22;9779;51.756;7.450;2023-04-02T07:04:18;4.10;99.90
19292;DHT22;9779;51.756;7.450;2023-04-02T07:06:44;4.10;99.90
19292;DHT22;9779;51.756;7.450;2023-04-02T07:09:09;4.20;99.90
19292;DHT22;9779;51.756;7.450;2023-04-02T07:11:35;4.20;99.90
19292;DHT22;9779;51.756;7.450;2023-04-02T07:14:00;4.20;99.90
19292;DHT22;9779;51.756;7.450;2023-04-02T07:16:28;4.20;99.90
19292;DHT22;9779;51.756;7.450;2023-04-02T07:18:55;4.30;99.90
19292;DHT22;9779;51.756;7.450;2023-04-02T07:21:23;4.30;99.90
19292;DHT22;9779;51.756;7.450;2023-04-02T07:23:48;4.20;99.90
19292;DHT22;9779;51.756;7.450;2023-04-02T07:26:19;4.30;99.90
19292;DHT22;9779;51.756;7.450;2023-04-02T07:28:44;4.30;99.90
19292;DHT22;9779;51.756;7.450;2023-04-02T07:31:22;4.30;99.90
19292;DHT22;9779;51.756;7.450;2023-04-02T07:33:49;4.30;99.90
19292;DHT22;9779;51.756;7.450;2023-04-02T07:36:17;4.30;99.90
19292;DHT22;9779;51.756;7.450;2023-04-02T07:38:43;4.30;99.90
19292;DHT22;9779;51.756;7.450;2023-04-02T07:41:08;4.30;99.90
19292;DHT22;9779;51.756;7.450;2023-04-02T07:43:34;4.30;99.90
19292;DHT22;9779;51.756;7.450;2023-04-02T07:46:01;4.30;99.90
19292;DHT22;9779;51.756;7.450;2023-04-02T07:48:26;4.30;99.90
19292;DHT22;9779;51.756;7.450;2023-04-02T07:50:52;4.30;99.90
19292;DHT22;9779;51.756;7.450;2023-04-02T07:53:26;4.30;99.90
19292;DHT22;9779;51.756;7.450;2023-04-02T07:55:54;4.30;99.90
19292;DHT22;9779;51.756;7.450;2023-04-02T07:58:20;4.30;99.90
19292;DHT22;9779;51.756;7.450;2023-04-02T08:00:45;4.30;99.90
19292;DHT22;9779;51.756;7.450;2023-04-02T08:03:12;4.30;99.90
19292;DHT22;9779;51.756;7.450;2023-04-02T08:05:38;4.30;99.90
19292;DHT22;9779;51.756;7.450;2023-04-02T08:08:04;4.40;99.90
19292;DHT22;9779;51.756;7.450;2023-04-02T08:10:29;4.40;99.90
19292;DHT22;9779;51.756;7.450;2023-04-02T08:12:55;4.40;99.90
19292;DHT22;9779;51.756;7.450;2023-04-02T08:15:21;4.30;99.90
19292;DHT22;9779;51.756;7.450;2023-04-02T08:17:46;4.40;99.90
19292;DHT22;9779;51.756;7.450;2023-04-02T08:20:21;4.40;99.90
19292;DHT22;9779;51.756;7.450;2023-04-02T08:22:48;4.40;99.90
19292;DHT22;9779;51.756;7.450;2023-04-02T08:25:14;4.40;99.90
19292;DHT22;9779;51.756;7.450;2023-04-02T08:27:41;4.50;99.90
19292;DHT22;9779;51.756;7.450;2023-04-02T08:30:08;4.50;99.90
19292;DHT22;9779;51.756;7.450;2023-04-02T08:32:35;4.50;99.90
19292;DHT22;9779;51.756;7.450;2023-04-02T08:35:01;4.50;99.90
19292;DHT22;9779;51.756;7.450;2023-04-02T08:37:27;4.50;99.90
19292;DHT22;9779;51.756;7.450;2023-04-02T08:39:52;4.50;99.90
19292;DHT22;9779;51.756;7.450;2023-04-02T08:45:12;4.60;99.90
19292;DHT22;9779;51.756;7.450;2023-04-02T08:47:41;4.60;99.90
19292;DHT22;9779;51.756;7.450;2023-04-02T08:52:58;4.60;99.90
19292;DHT22;9779;51.756;7.450;2023-04-02T08:55:35;4.70;99.90
19292;DHT22;9779;51.756;7.450;2023-04-02T09:00:41;4.70;99.90
19292;DHT22;9779;51.756;7.450;2023-04-02T09:03:34;4.80;99.90
19292;DHT22;9779;51.756;7.450;2023-04-02T09:06:01;4.80;99.90
19292;DHT22;9779;51.756;7.450;2023-04-02T09:08:30;4.80;99.90
19292;DHT22;9779;51.756;7.450;2023-04-02T09:13:58;4.90;99.90
19292;DHT22;9779;51.756;7.450;2023-04-02T09:16:36;4.80;99.90
19292;DHT22;9779;51.756;7.450;2023-04-02T09:19:17;4.90;99.90
19292;DHT22;9779;51.756;7.450;2023-04-02T09:24:24;4.90;99.90
19292;DHT22;9779;51.756;7.450;2023-04-02T09:26:50;5.00;99.90
19292;DHT22;9779;51.756;7.450;2023-04-02T09:29:43;5.00;99.90
19292;DHT22;9779;51.756;7.450;2023-04-02T09:32:26;5.00;99.90
19292;DHT22;9779;51.756;7.450;2023-04-02T09:35:06;5.00;99.90
19292;DHT22;9779;51.756;7.450;2023-04-02T09:37:33;5.10;99.90
19292;DHT22;9779;51.756;7.450;2023-04-02T09:40:31;5.10;99.90
19292;DHT22;9779;51.756;7.450;2023-04-02T09:43:08;5.10;99.90
19292;DHT22;9779;51.756;7.450;2023-04-02T09:45:34;5.10;99.90
19292;DHT22;9779;51.756;7.450;2023-04-02T09:48:00;5.10;99.90
19292;DHT22;9779;51.756;7.450;2023-04-02T09:50:30;5.20;99.90
19292;DHT22;9779;51.756;7.450;2023-04-02T09:52:57;5.10;99.90
19292;DHT22;9779;51.756;7.450;2023-04-02T09:55:27;5.20;99.90
19292;DHT22;9779;51.756;7.450;2023-04-02T09:58:14;5.20;99.90
19292;DHT22;9779;51.756;7.450;2023-04-02T10:00:49;5.30;99.90
19292;DHT22;9779;51.756;7.450;2023-04-02T10:03:28;5.30;99.90
19292;DHT22;9779;51.756;7.450;2023-04-02T10:06:11;5.40;99.90
19292;DHT22;9779;51.756;7.450;2023-04-02T10:08:38;5.30;99.90
19292;DHT22;9779;51.756;7.450;2023-04-02T10:11:16;5.30;99.90
19292;DHT22;9779;51.756;7.450;2023-04-02T10:14:01;5.30;99.90
19292;DHT22;9779;51.756;7.450;2023-04-02T10:16:37;5.40;99.90
19292;DHT22;9779;51.756;7.450;2023-04-02T10:19:22;5.50;99.90
19292;DHT22;9779;51.756;7.450;2023-04-02T10:21:49;5.60;99.90
19292;DHT22;9779;51.756;7.450;2023-04-02T10:24:17;5.60;99.90
19292;DHT22;9779;51.756;7.450;2023-04-02T10:32:07;5.70;99.90
19292;DHT22;9779;51.756;7.450;2023-04-02T10:34:57;5.90;99.90
19292;DHT22;9779;51.756;7.450;2023-04-02T10:40:28;5.90;1.00
19292;DHT22;9779;51.756;7.450;2023-04-02T10:43:25;5.90;1.00
19292;DHT22;9779;51.756;7.450;2023-04-02T10:46:22;6.00;1.00
19292;DHT22;9779;51.756;7.450;2023-04-02T10:52:19;6.10;1.00
19292;DHT22;9779;51.756;7.450;2023-04-02T10:59:45;6.10;1.00
19292;DHT22;9779;51.756;7.450;2023-04-02T11:03:06;6.10;1.00
19292;DHT22;9779;51.756;7.450;2023-04-02T11:05:49;6.10;1.00
19292;DHT22;9779;51.756;7.450;2023-04-02T11:11:08;6.10;1.00
19292;DHT22;9779;51.756;7.450;2023-04-02T11:13:55;6.20;1.00
19292;DHT22;9779;51.756;7.450;2023-04-02T11:16:22;6.20;1.00
19292;DHT22;9779;51.756;7.450;2023-04-02T11:21:43;6.30;1.00
19292;DHT22;9779;51.756;7.450;2023-04-02T11:29:42;6.80;99.90
19292;DHT22;9779;51.756;7.450;2023-04-02T11:37:38;7.50;1.00
19292;DHT22;9779;51.756;7.450;2023-04-02T11:42:45;8.20;99.90
19292;DHT22;9779;51.756;7.450;2023-04-02T11:50:29;8.20;99.90
19292;DHT22;9779;51.756;7.450;2023-04-02T11:53:02;8.00;1.00
19292;DHT22;9779;51.756;7.450;2023-04-02T11:55:29;7.90;99.90
19292;DHT22;9779;51.756;7.450;2023-04-02T12:09:45;8.20;1.00
19292;DHT22;9779;51.756;7.450;2023-04-02T12:12:25;8.10;99.90
19292;DHT22;9779;51.756;7.450;2023-04-02T12:14:53;8.00;99.90
19292;DHT22;9779;51.756;7.450;2023-04-02T12:17:31;7.80;99.90
19292;DHT22;9779;51.756;7.450;2023-04-02T12:20:03;7.80;99.90
19292;DHT22;9779;51.756;7.450;2023-04-02T12:22:38;7.90;99.90
19292;DHT22;9779;51.756;7.450;2023-04-02T12:27:46;7.90;99.90
19292;DHT22;9779;51.756;7.450;2023-04-02T12:30:16;7.90;99.90
19292;DHT22;9779;51.756;7.450;2023-04-02T12:32:43;8.20;99.90
19292;DHT22;9779;51.756;7.450;2023-04-02T12:37:52;8.80;99.90
19292;DHT22;9779;51.756;7.450;2023-04-02T12:40:18;9.10;99.90
19292;DHT22;9779;51.756;7.450;2023-04-02T12:42:43;9.40;99.90
19292;DHT22;9779;51.756;7.450;2023-04-02T12:45:26;9.30;99.90
19292;DHT22;9779;51.756;7.450;2023-04-02T12:47:53;9.30;1.00
19292;DHT22;9779;51.756;7.450;2023-04-02T12:50:20;9.30;1.00
19292;DHT22;9779;51.756;7.450;2023-04-02T12:52:49;9.70;43.70
19292;DHT22;9779;51.756;7.450;2023-04-02T12:55:24;10.30;99.90
19292;DHT22;9779;51.756;7.450;2023-04-02T12:57:57;10.90;53.20
19292;DHT22;9779;51.756;7.450;2023-04-02T13:05:55;10.30;50.50
19292;DHT22;9779;51.756;7.450;2023-04-02T13:08:31;10.00;1.00
19292;DHT22;9779;51.756;7.450;2023-04-02T13:11:03;9.90;1.00
19292;DHT22;9779;51.756;7.450;2023-04-02T13:13:36;9.80;99.90
19292;DHT22;9779;51.756;7.450;2023-04-02T13:16:26;9.60;99.90
19292;DHT22;9779;51.756;7.450;2023-04-02T13:19:16;9.60;99.90
19292;DHT22;9779;51.756;7.450;2023-04-02T13:21:44;9.60;99.90
19292;DHT22;9779;51.756;7.450;2023-04-02T13:24:25;9.50;1.00
19292;DHT22;9779;51.756;7.450;2023-04-02T13:26:54;9.50;1.00
19292;DHT22;9779;51.756;7.450;2023-04-02T13:31:55;9.40;1.00
19292;DHT22;9779;51.756;7.450;2023-04-02T13:34:20;9.40;1.00
19292;DHT22;9779;51.756;7.450;2023-04-02T13:36:47;9.40;99.90
19292;DHT22;9779;51.756;7.450;2023-04-02T13:39:12;9.60;1.00
19292;DHT22;9779;51.756;7.450;2023-04-02T13:41:47;9.60;99.90
19292;DHT22;9779;51.756;7.450;2023-04-02T13:44:24;9.60;1.00
19292;DHT22;9779;51.756;7.450;2023-04-02T13:46:51;9.60;1.00
19292;DHT22;9779;51.756;7.450;2023-04-02T13:49:17;9.70;1.00
19292;DHT22;9779;51.756;7.450;2023-04-02T13:51:46;9.90;99.90
19292;DHT22;9779;51.756;7.450;2023-04-02T13:54:20;9.70;1.00
19292;DHT22;9779;51.756;7.450;2023-04-02T13:56:47;9.80;1.00
19292;DHT22;9779;51.756;7.450;2023-04-02T13:59:13;10.00;99.90
19292;DHT22;9779;51.756;7.450;2023-04-02T14:01:40;10.20;1.00
19292;DHT22;9779;51.756;7.450;2023-04-02T14:04:08;10.10;1.00
19292;DHT22;9779;51.756;7.450;2023-04-02T14:07:06;10.10;99.90
19292;DHT22;9779;51.756;7.450;2023-04-02T14:23:46;10.70;1.00
19292;DHT22;9779;51.756;7.450;2023-04-02T14:29:18;11.10;99.90
19292;DHT22;9779;51.756;7.450;2023-04-02T14:32:06;11.20;99.90
19292;DHT22;9779;51.756;7.450;2023-04-02T14:45:55;11.60;1.00
19292;DHT22;9779;51.756;7.450;2023-04-02T14:56:16;12.40;1.00
19292;DHT22;9779;51.756;7.450;2023-04-02T14:58:46;12.60;1.00
19292;DHT22;9779;51.756;7.450;2023-04-02T15:01:20;12.20;1.00
19292;DHT22;9779;51.756;7.450;2023-04-02T15:04:02;12.40;1.00
19292;DHT22;9779;51.756;7.450;2023-04-02T15:06:39;12.60;1.00
19292;DHT22;9779;51.756;7.450;2023-04-02T15:09:46;12.40;1.00
19292;DHT22;9779;51.756;7.450;2023-04-02T15:12:21;12.30;1.00
19292;DHT22;9779;51.756;7.450;2023-04-02T15:14:52;12.10;1.00
19292;DHT22;9779;51.756;7.450;2023-04-02T15:17:19;12.00;1.00
19292;DHT22;9779;51.756;7.450;2023-04-02T15:19:45;11.70;1.00
19292;DHT22;9779;51.756;7.450;2023-04-02T15:25:32;11.20;1.00
19292;DHT22;9779;51.756;7.450;2023-04-02T15:30:40;12.60;1.00
19292;DHT22;9779;51.756;7.450;2023-04-02T15:39:02;12.50;1.00
19292;DHT22;9779;51.756;7.450;2023-04-02T15:41:40;12.90;1.00
19292;DHT22;9779;51.756;7.450;2023-04-02T15:44:15;13.20;99.90
19292;DHT22;9779;51.756;7.450;2023-04-02T15:47:08;13.40;99.90
19292;DHT22;9779;51.756;7.450;2023-04-02T15:49:39;13.20;99.90
19292;DHT22;9779;51.756;7.450;2023-04-02T15:52:24;13.10;99.90
19292;DHT22;9779;51.756;7.450;2023-04-02T15:55:01;12.90;99.90
19292;DHT22;9779;51.756;7.450;2023-04-02T16:00:31;13.30;99.90
19292;DHT22;9779;51.756;7.450;2023-04-02T16:05:42;12.80;1.00
19292;DHT22;9779;51.756;7.450;2023-04-02T16:10:57;12.60;99.90
19292;DHT22;9779;51.756;7.450;2023-04-02T16:13:33;13.00;99.90
19292;DHT22;9779;51.756;7.450;2023-04-02T16:16:02;13.00;99.90
19292;DHT22;9779;51.756;7.450;2023-04-02T16:18:42;13.00;99.90
19292;DHT22;9779;51.756;7.450;2023-04-02T16:21:13;13.30;99.90
19292;DHT22;9779;51.756;7.450;2023-04-02T16:23:41;13.60;99.90
19292;DHT22;9779;51.756;7.450;2023-04-02T16:26:25;13.60;99.90
19292;DHT22;9779;51.756;7.450;2023-04-02T16:29:06;13.40;99.90
19292;DHT22;9779;51.756;7.450;2023-04-02T16:37:28;12.60;99.90
19292;DHT22;9779;51.756;7.450;2023-04-02T16:40:05;12.40;99.90
19292;DHT22;9779;51.756;7.450;2023-04-02T16:53:56;11.40;1.00
19292;DHT22;9779;51.756;7.450;2023-04-02T17:04:52;10.50;1.00
19292;DHT22;9779;51.756;7.450;2023-04-02T17:12:45;10.40;1.00
19292;DHT22;9779;51.756;7.450;2023-04-02T17:15:26;10.40;1.00
19292;DHT22;9779;51.756;7.450;2023-04-02T17:17:57;10.40;99.90
19292;DHT22;9779;51.756;7.450;2023-04-02T17:20:24;10.40;99.90
19292;DHT22;9779;51.756;7.450;2023-04-02T17:22:51;10.30;99.90
19292;DHT22;9779;51.756;7.450;2023-04-02T17:25:26;10.30;99.90
19292;DHT22;9779;51.756;7.450;2023-04-02T17:27:54;10.30;99.90
19292;DHT22;9779;51.756;7.450;2023-04-02T17:30:33;10.20;99.90
19292;DHT22;9779;51.756;7.450;2023-04-02T17:33:00;10.10;99.90
19292;DHT22;9779;51.756;7.450;2023-04-02T17:35:32;10.00;99.90
19292;DHT22;9779;51.756;7.450;2023-04-02T17:40:45;9.90;1.00
19292;DHT22;9779;51.756;7.450;2023-04-02T17:43:49;9.90;1.00
19292;DHT22;9779;51.756;7.450;2023-04-02T17:46:47;9.90;1.00
19292;DHT22;9779;51.756;7.450;2023-04-02T17:49:30;9.80;1.00
19292;DHT22;9779;51.756;7.450;2023-04-02T17:55:01;9.80;99.90
19292;DHT22;9779;51.756;7.450;2023-04-02T17:57:46;9.70;1.00
19292;DHT22;9779;51.756;7.450;2023-04-02T18:05:44;9.60;1.00
19292;DHT22;9779;51.756;7.450;2023-04-02T18:08:46;9.60;1.00
19292;DHT22;9779;51.756;7.450;2023-04-02T18:14:27;9.50;1.00
19292;DHT22;9779;51.756;7.450;2023-04-02T18:17:29;9.50;1.00
19292;DHT22;9779;51.756;7.450;2023-04-02T18:20:36;9.40;1.00
19292;DHT22;9779;51.756;7.450;2023-04-02T18:28:52;10.10;1.00
19292;DHT22;9779;51.756;7.450;2023-04-02T18:31:44;9.70;99.90
19292;DHT22;9779;51.756;7.450;2023-04-02T18:40:36;9.30;99.90
19292;DHT22;9779;51.756;7.450;2023-04-02T18:49:10;9.10;99.90
19292;DHT22;9779;51.756;7.450;2023-04-02T18:51:39;9.10;99.90
19292;DHT22;9779;51.756;7.450;2023-04-02T18:56:36;9.00;99.90
19292;DHT22;9779;51.756;7.450;2023-04-02T18:59:37;9.00;99.90
19292;DHT22;9779;51.756;7.450;2023-04-02T19:04:56;8.90;99.90
19292;DHT22;9779;51.756;7.450;2023-04-02T19:07:22;8.90;99.90
19292;DHT22;9779;51.756;7.450;2023-04-02T19:09:50;8.90;99.90
19292;DHT22;9779;51.756;7.450;2023-04-02T19:12:19;8.80;99.90
19292;DHT22;9779;51.756;7.450;2023-04-02T19:14:46;8.70;99.90
19292;DHT22;9779;51.756;7.450;2023-04-02T19:17:39;8.70;99.90
19292;DHT22;9779;51.756;7.450;2023-04-02T19:28:27;8.50;99.90
19292;DHT22;9779;51.756;7.450;2023-04-02T19:31:14;8.50;99.90
19292;DHT22;9779;51.756;7.450;2023-04-02T19:34:01;8.40;99.90
19292;DHT22;9779;51.756;7.450;2023-04-02T19:36:46;8.40;99.90
19292;DHT22;9779;51.756;7.450;2023-04-02T19:41:52;8.30;99.90
19292;DHT22;9779;51.756;7.450;2023-04-02T19:44:19;8.30;99.90
19292;DHT22;9779;51.756;7.450;2023-04-02T19:46:45;8.20;99.90
19292;DHT22;9779;51.756;7.450;2023-04-02T19:49:17;8.10;99.90
19292;DHT22;9779;51.756;7.450;2023-04-02T19:51:47;8.10;99.90
19292;DHT22;9779;51.756;7.450;2023-04-02T19:54:12;8.10;99.90
19292;DHT22;9779;51.756;7.450;2023-04-02T19:56:38;8.00;99.90
19292;DHT22;9779;51.756;7.450;2023-04-02T19:59:05;7.90;99.90
19292;DHT22;9779;51.756;7.450;2023-04-02T20:01:30;7.90;99.90
19292;DHT22;9779;51.756;7.450;2023-04-02T20:03:56;7.90;99.90
19292;DHT22;9779;51.756;7.450;2023-04-02T20:06:21;7.80;99.90
19292;DHT22;9779;51.756;7.450;2023-04-02T20:08:47;7.80;99.90
19292;DHT22;9779;51.756;7.450;2023-04-02T20:11:13;7.80;99.90
19292;DHT22;9779;51.756;7.450;2023-04-02T20:13:41;7.70;99.90
19292;DHT22;9779;51.756;7.450;2023-04-02T20:16:06;7.60;99.90
19292;DHT22;9779;51.756;7.450;2023-04-02T20:21:03;7.60;99.90
19292;DHT22;9779;51.756;7.450;2023-04-02T20:23:28;7.50;99.90
19292;DHT22;9779;51.756;7.450;2023-04-02T20:25:55;7.50;99.90
19292;DHT22;9779;51.756;7.450;2023-04-02T20:28:23;7.50;99.90
19292;DHT22;9779;51.756;7.450;2023-04-02T20:30:49;7.40;99.90
19292;DHT22;9779;51.756;7.450;2023-04-02T20:33:23;7.30;99.90
19292;DHT22;9779;51.756;7.450;2023-04-02T20:35:50;7.20;99.90
19292;DHT22;9779;51.756;7.450;2023-04-02T20:38:17;7.10;99.90
19292;DHT22;9779;51.756;7.450;2023-04-02T20:40:43;7.20;99.90
19292;DHT22;9779;51.756;7.450;2023-04-02T20:43:09;7.20;99.90
19292;DHT22;9779;51.756;7.450;2023-04-02T20:45:35;7.10;99.90
19292;DHT22;9779;51.756;7.450;2023-04-02T20:48:02;7.10;99.90
19292;DHT22;9779;51.756;7.450;2023-04-02T20:50:27;7.10;99.90
19292;DHT22;9779;51.756;7.450;2023-04-02T20:52:54;7.00;99.90
19292;DHT22;9779;51.756;7.450;2023-04-02T20:55:21;7.00;99.90
19292;DHT22;9779;51.756;7.450;2023-04-02T20:57:47;7.00;99.90
19292;DHT22;9779;51.756;7.450;2023-04-02T21:00:13;7.00;99.90
19292;DHT22;9779;51.756;7.450;2023-04-02T21:02:38;7.00;99.90
19292;DHT22;9779;51.756;7.450;2023-04-02T21:05:04;6.90;99.90
19292;DHT22;9779;51.756;7.450;2023-04-02T21:07:30;6.90;99.90
19292;DHT22;9779;51.756;7.450;2023-04-02T21:09:55;6.90;99.90
19292;DHT22;9779;51.756;7.450;2023-04-02T21:12:21;6.90;99.90
19292;DHT22;9779;51.756;7.450;2023-04-02T21:14:49;6.90;99.90
19292;DHT22;9779;51.756;7.450;2023-04-02T21:17:20;6.90;99.90
19292;DHT22;9779;51.756;7.450;2023-04-02T21:19:45;6.80;99.90
19292;DHT22;9779;51.756;7.450;2023-04-02T21:22:11;6.70;99.90
19292;DHT22;9779;51.756;7.450;2023-04-02T21:24:37;6.80;99.90
19292;DHT22;9779;51.756;7.450;2023-04-02T21:27:02;6.70;99.90
19292;DHT22;9779;51.756;7.450;2023-04-02T21:29:28;6.70;99.90
19292;DHT22;9779;51.756;7.450;2023-04-02T21:31:53;6.70;99.90
19292;DHT22;9779;51.756;7.450;2023-04-02T21:34:19;6.70;99.90
19292;DHT22;9779;51.756;7.450;2023-04-02T21:36:46;6.70;99.90
19292;DHT22;9779;51.756;7.450;2023-04-02T21:39:20;6.60;99.90
19292;DHT22;9779;51.756;7.450;2023-04-02T21:41:48;6.60;99.90
19292;DHT22;9779;51.756;7.450;2023-04-02T21:44:19;6.60;99.90
19292;DHT22;9779;51.756;7.450;2023-04-02T21:46:44;6.50;99.90
19292;DHT22;9779;51.756;7.450;2023-04-02T21:49:12;6.50;99.90
19292;DHT22;9779;51.756;7.450;2023-04-02T21:51:39;6.50;99.90